sensor_id;sensor_type;location;lat;lon;timestamp;temperature;humidity
23873;DHT22;42884;50.718;4.630;2023-05-02T00:00:08;10.90;99.90
23873;DHT22;42884;50.718;4.630;2023-05-02T00:02:34;11.00;99.90
23873;DHT22;42884;50.718;4.630;2023-05-02T00:05:00;11.00;99.90
23873;DHT22;42884;50.718;4.630;2023-05-02T00:07:25;11.10;99.90
23873;DHT22;42884;50.718;4.630;2023-05-02T00:09:51;11.10;99.90
23873;DHT22;42884;50.718;4.630;2023-05-02T00:12:17;11.10;99.90
23873;DHT22;42884;50.718;4.630;2023-05-02T00:14:42;11.10;99.90
23873;DHT22;42884;50.718;4.630;2023-05-02T00:17:08;11.10;99.90
23873;DHT22;42884;50.718;4.630;2023-05-02T00:19:37;11.10;99.90
23873;DHT22;42884;50.718;4.630;2023-05-02T00:22:04;11.10;99.90
23873;DHT22;42884;50.718;4.630;2023-05-02T00:24:29;11.10;99.90
23873;DHT22;42884;50.718;4.630;2023-05-02T00:26:55;11.20;99.90
23873;DHT22;42884;50.718;4.630;2023-05-02T00:29:20;11.20;99.90
23873;DHT22;42884;50.718;4.630;2023-05-02T00:31:46;11.30;99.90
23873;DHT22;42884;50.718;4.630;2023-05-02T00:34:12;11.30;99.90
23873;DHT22;42884;50.718;4.630;2023-05-02T00:36:37;11.30;99.90
23873;DHT22;42884;50.718;4.630;2023-05-02T00:39:03;11.40;99.90
23873;DHT22;42884;50.718;4.630;2023-05-02T00:41:29;11.50;99.90
23873;DHT22;42884;50.718;4.630;2023-05-02T00:43:55;11.60;99.90
23873;DHT22;42884;50.718;4.630;2023-05-02T00:46:22;11.60;99.90
23873;DHT22;42884;50.718;4.630;2023-05-02T00:48:47;11.70;99.90
23873;DHT22;42884;50.718;4.630;2023-05-02T00:51:13;11.70;99.90
23873;DHT22;42884;50.718;4.630;2023-05-02T00:53:39;11.80;99.90
23873;DHT22;42884;50.718;4.630;2023-05-02T00:56:05;11.90;99.90
23873;DHT22;42884;50.718;4.630;2023-05-02T00:58:31;11.90;99.90
23873;DHT22;42884;50.718;4.630;2023-05-02T01:03:50;12.00;99.90
23873;DHT22;42884;50.718;4.630;2023-05-02T01:08:55;12.20;99.90
23873;DHT22;42884;50.718;4.630;2023-05-02T01:11:35;12.20;99.90
23873;DHT22;42884;50.718;4.630;2023-05-02T01:14:05;12.20;99.90
23873;DHT22;42884;50.718;4.630;2023-05-02T01:16:33;12.20;99.90
23873;DHT22;42884;50.718;4.630;2023-05-02T01:19:04;12.30;99.90
23873;DHT22;42884;50.718;4.630;2023-05-02T01:21:30;12.30;99.90
23873;DHT22;42884;50.718;4.630;2023-05-02T01:23:59;12.40;99.90
23873;DHT22;42884;50.718;4.630;2023-05-02T01:26:34;12.40;99.90
23873;DHT22;42884;50.718;4.630;2023-05-02T01:29:01;12.50;99.90
23873;DHT22;42884;50.718;4.630;2023-05-02T01:31:28;12.40;99.90
23873;DHT22;42884;50.718;4.630;2023-05-02T01:33:55;12.50;99.90
23873;DHT22;42884;50.718;4.630;2023-05-02T01:36:24;12.50;99.90
23873;DHT22;42884;50.718;4.630;2023-05-02T01:38:51;12.50;99.90
23873;DHT22;42884;50.718;4.630;2023-05-02T01:41:17;12.50;99.90
23873;DHT22;42884;50.718;4.630;2023-05-02T01:43:44;12.60;99.90
23873;DHT22;42884;50.718;4.630;2023-05-02T01:46:10;12.40;99.90
23873;DHT22;42884;50.718;4.630;2023-05-02T01:48:37;12.40;99.90
23873;DHT22;42884;50.718;4.630;2023-05-02T01:51:05;12.40;99.90
23873;DHT22;42884;50.718;4.630;2023-05-02T01:53:31;12.50;99.90
23873;DHT22;42884;50.718;4.630;2023-05-02T01:55:58;12.50;99.90
23873;DHT22;42884;50.718;4.630;2023-05-02T01:58:25;12.50;99.90
23873;DHT22;42884;50.718;4.630;2023-05-02T02:00:52;12.50;99.90
23873;DHT22;42884;50.718;4.630;2023-05-02T02:03:18;12.50;99.90
23873;DHT22;42884;50.718;4.630;2023-05-02T02:05:44;12.50;99.90
23873;DHT22;42884;50.718;4.630;2023-05-02T02:08:11;12.60;99.90
23873;DHT22;42884;50.718;4.630;2023-05-02T02:10:40;12.60;99.90
23873;DHT22;42884;50.718;4.630;2023-05-02T02:16:07;12.60;99.90
23873;DHT22;42884;50.718;4.630;2023-05-02T02:18:35;12.50;99.90
23873;DHT22;42884;50.718;4.630;2023-05-02T02:21:02;12.50;99.90
23873;DHT22;42884;50.718;4.630;2023-05-02T02:23:31;12.50;99.90
23873;DHT22;42884;50.718;4.630;2023-05-02T02:25:57;12.60;99.90
23873;DHT22;42884;50.718;4.630;2023-05-02T02:28:24;12.60;99.90
23873;DHT22;42884;50.718;4.630;2023-05-02T02:30:49;12.60;99.90
23873;DHT22;42884;50.718;4.630;2023-05-02T02:33:15;12.50;99.90
23873;DHT22;42884;50.718;4.630;2023-05-02T02:35:42;12.50;99.90
23873;DHT22;42884;50.718;4.630;2023-05-02T02:40:44;12.50;99.90
23873;DHT22;42884;50.718;4.630;2023-05-02T02:43:22;12.50;99.90
23873;DHT22;42884;50.718;4.630;2023-05-02T02:45:56;12.50;99.90
23873;DHT22;42884;50.718;4.630;2023-05-02T02:48:35;12.50;99.90
23873;DHT22;42884;50.718;4.630;2023-05-02T02:51:05;12.50;99.90
23873;DHT22;42884;50.718;4.630;2023-05-02T02:53:39;12.40;99.90
23873;DHT22;42884;50.718;4.630;2023-05-02T02:56:13;12.40;99.90
23873;DHT22;42884;50.718;4.630;2023-05-02T03:01:14;12.30;99.90
23873;DHT22;42884;50.718;4.630;2023-05-02T03:03:40;12.30;99.90
23873;DHT22;42884;50.718;4.630;2023-05-02T03:06:07;12.30;99.90
23873;DHT22;42884;50.718;4.630;2023-05-02T03:08:39;12.30;99.90
23873;DHT22;42884;50.718;4.630;2023-05-02T03:11:05;12.30;99.90
23873;DHT22;42884;50.718;4.630;2023-05-02T03:13:31;12.30;99.90
23873;DHT22;42884;50.718;4.630;2023-05-02T03:16:31;12.30;99.90
23873;DHT22;42884;50.718;4.630;2023-05-02T03:18:48;12.40;99.90
23873;DHT22;42884;50.718;4.630;2023-05-02T03:21:14;12.40;99.90
23873;DHT22;42884;50.718;4.630;2023-05-02T03:23:39;12.40;99.90
23873;DHT22;42884;50.718;4.630;2023-05-02T03:26:05;12.40;99.90
23873;DHT22;42884;50.718;4.630;2023-05-02T03:28:31;12.50;99.90
23873;DHT22;42884;50.718;4.630;2023-05-02T03:30:56;12.50;99.90
23873;DHT22;42884;50.718;4.630;2023-05-02T03:33:22;12.40;99.90
23873;DHT22;42884;50.718;4.630;2023-05-02T03:35:48;12.40;99.90
23873;DHT22;42884;50.718;4.630;2023-05-02T03:38:13;12.40;99.90
23873;DHT22;42884;50.718;4.630;2023-05-02T03:40:39;12.40;99.90
23873;DHT22;42884;50.718;4.630;2023-05-02T03:43:05;12.40;99.90
23873;DHT22;42884;50.718;4.630;2023-05-02T03:45:30;12.50;99.90
23873;DHT22;42884;50.718;4.630;2023-05-02T03:47:56;12.50;99.90
23873;DHT22;42884;50.718;4.630;2023-05-02T03:50:21;12.60;99.90
23873;DHT22;42884;50.718;4.630;2023-05-02T03:52:47;12.60;99.90
23873;DHT22;42884;50.718;4.630;2023-05-02T03:55:13;12.60;99.90
23873;DHT22;42884;50.718;4.630;2023-05-02T03:57:38;12.60;99.90
23873;DHT22;42884;50.718;4.630;2023-05-02T04:00:04;12.60;99.90
23873;DHT22;42884;50.718;4.630;2023-05-02T04:02:30;12.60;99.90
23873;DHT22;42884;50.718;4.630;2023-05-02T04:04:55;12.60;99.90
23873;DHT22;42884;50.718;4.630;2023-05-02T04:07:21;12.60;99.90
23873;DHT22;42884;50.718;4.630;2023-05-02T04:09:47;12.60;99.90
23873;DHT22;42884;50.718;4.630;2023-05-02T04:12:13;12.60;99.90
23873;DHT22;42884;50.718;4.630;2023-05-02T04:14:39;12.60;99.90
23873;DHT22;42884;50.718;4.630;2023-05-02T04:17:05;12.70;99.90
23873;DHT22;42884;50.718;4.630;2023-05-02T04:19:31;12.70;99.90
23873;DHT22;42884;50.718;4.630;2023-05-02T04:21:56;12.70;99.90
23873;DHT22;42884;50.718;4.630;2023-05-02T04:24:22;12.50;99.90
23873;DHT22;42884;50.718;4.630;2023-05-02T04:26:48;12.50;99.90
23873;DHT22;42884;50.718;4.630;2023-05-02T04:29:13;12.50;99.90
23873;DHT22;42884;50.718;4.630;2023-05-02T04:31:39;12.50;99.90
23873;DHT22;42884;50.718;4.630;2023-05-02T04:34:05;12.50;99.90
23873;DHT22;42884;50.718;4.630;2023-05-02T04:36:31;12.60;99.90
23873;DHT22;42884;50.718;4.630;2023-05-02T04:38:56;12.60;99.90
23873;DHT22;42884;50.718;4.630;2023-05-02T04:41:22;12.50;99.90
23873;DHT22;42884;50.718;4.630;2023-05-02T04:43:48;12.50;99.90
23873;DHT22;42884;50.718;4.630;2023-05-02T04:46:14;12.60;99.90
23873;DHT22;42884;50.718;4.630;2023-05-02T04:48:40;12.60;99.90
23873;DHT22;42884;50.718;4.630;2023-05-02T04:51:09;12.60;99.90
23873;DHT22;42884;50.718;4.630;2023-05-02T04:53:35;12.70;99.90
23873;DHT22;42884;50.718;4.630;2023-05-02T04:56:01;12.70;99.90
23873;DHT22;42884;50.718;4.630;2023-05-02T04:58:26;12.70;99.90
23873;DHT22;42884;50.718;4.630;2023-05-02T05:00:52;12.70;99.90
23873;DHT22;42884;50.718;4.630;2023-05-02T05:03:19;12.80;99.90
23873;DHT22;42884;50.718;4.630;2023-05-02T05:05:44;12.90;99.90
23873;DHT22;42884;50.718;4.630;2023-05-02T05:08:13;12.90;99.90
23873;DHT22;42884;50.718;4.630;2023-05-02T05:10:38;12.90;99.90
23873;DHT22;42884;50.718;4.630;2023-05-02T05:13:05;12.90;99.90
23873;DHT22;42884;50.718;4.630;2023-05-02T05:15:30;12.90;99.90
23873;DHT22;42884;50.718;4.630;2023-05-02T05:17:56;13.00;99.90
23873;DHT22;42884;50.718;4.630;2023-05-02T05:20:21;13.00;99.90
23873;DHT22;42884;50.718;4.630;2023-05-02T05:22:47;13.10;99.90
23873;DHT22;42884;50.718;4.630;2023-05-02T05:25:12;13.10;99.90
23873;DHT22;42884;50.718;4.630;2023-05-02T05:27:39;13.20;99.90
23873;DHT22;42884;50.718;4.630;2023-05-02T05:30:05;13.20;99.90
23873;DHT22;42884;50.718;4.630;2023-05-02T05:32:33;13.20;99.90
23873;DHT22;42884;50.718;4.630;2023-05-02T05:35:00;13.20;99.90
23873;DHT22;42884;50.718;4.630;2023-05-02T05:37:25;13.20;99.90
23873;DHT22;42884;50.718;4.630;2023-05-02T05:39:51;13.20;99.90
23873;DHT22;42884;50.718;4.630;2023-05-02T05:42:17;13.30;99.90
23873;DHT22;42884;50.718;4.630;2023-05-02T05:44:42;13.30;99.90
23873;DHT22;42884;50.718;4.630;2023-05-02T05:47:08;13.30;99.90
23873;DHT22;42884;50.718;4.630;2023-05-02T05:49:33;13.30;99.90
23873;DHT22;42884;50.718;4.630;2023-05-02T05:52:00;13.40;99.90
23873;DHT22;42884;50.718;4.630;2023-05-02T05:54:26;13.30;99.90
23873;DHT22;42884;50.718;4.630;2023-05-02T05:56:52;13.30;99.90
23873;DHT22;42884;50.718;4.630;2023-05-02T05:59:17;13.30;99.90
23873;DHT22;42884;50.718;4.630;2023-05-02T06:01:43;13.40;99.90
23873;DHT22;42884;50.718;4.630;2023-05-02T06:04:09;13.40;99.90
23873;DHT22;42884;50.718;4.630;2023-05-02T06:06:34;13.40;99.90
23873;DHT22;42884;50.718;4.630;2023-05-02T06:09:00;13.40;99.90
23873;DHT22;42884;50.718;4.630;2023-05-02T06:11:26;13.40;99.90
23873;DHT22;42884;50.718;4.630;2023-05-02T06:13:52;13.30;99.90
23873;DHT22;42884;50.718;4.630;2023-05-02T06:16:18;13.30;99.90
23873;DHT22;42884;50.718;4.630;2023-05-02T06:18:44;13.40;99.90
23873;DHT22;42884;50.718;4.630;2023-05-02T06:21:10;13.40;99.90
23873;DHT22;42884;50.718;4.630;2023-05-02T06:23:36;13.50;99.90
23873;DHT22;42884;50.718;4.630;2023-05-02T06:26:02;13.40;99.90
23873;DHT22;42884;50.718;4.630;2023-05-02T06:28:28;13.40;99.90
23873;DHT22;42884;50.718;4.630;2023-05-02T06:31:00;13.30;99.90
23873;DHT22;42884;50.718;4.630;2023-05-02T06:33:26;13.20;99.90
23873;DHT22;42884;50.718;4.630;2023-05-02T06:35:52;12.90;99.90
23873;DHT22;42884;50.718;4.630;2023-05-02T06:38:18;12.80;99.90
23873;DHT22;42884;50.718;4.630;2023-05-02T06:40:44;12.60;99.90
23873;DHT22;42884;50.718;4.630;2023-05-02T06:43:10;12.70;99.90
23873;DHT22;42884;50.718;4.630;2023-05-02T06:45:35;12.70;99.90
23873;DHT22;42884;50.718;4.630;2023-05-02T06:48:01;12.70;99.90
23873;DHT22;42884;50.718;4.630;2023-05-02T06:50:27;12.60;99.90
23873;DHT22;42884;50.718;4.630;2023-05-02T06:52:53;12.60;99.90
23873;DHT22;42884;50.718;4.630;2023-05-02T06:55:18;12.70;99.90
23873;DHT22;42884;50.718;4.630;2023-05-02T06:57:44;12.70;99.90
23873;DHT22;42884;50.718;4.630;2023-05-02T07:00:10;12.80;99.90
23873;DHT22;42884;50.718;4.630;2023-05-02T07:02:36;13.00;99.90
23873;DHT22;42884;50.718;4.630;2023-05-02T07:05:02;13.10;99.90
23873;DHT22;42884;50.718;4.630;2023-05-02T07:07:27;13.20;99.90
23873;DHT22;42884;50.718;4.630;2023-05-02T07:09:53;13.30;99.90
23873;DHT22;42884;50.718;4.630;2023-05-02T07:12:19;13.30;99.90
23873;DHT22;42884;50.718;4.630;2023-05-02T07:14:45;13.40;99.90
23873;DHT22;42884;50.718;4.630;2023-05-02T07:17:11;13.50;99.90
23873;DHT22;42884;50.718;4.630;2023-05-02T07:19:37;13.60;99.90
23873;DHT22;42884;50.718;4.630;2023-05-02T07:22:02;13.50;99.90
23873;DHT22;42884;50.718;4.630;2023-05-02T07:24:28;13.50;99.90
23873;DHT22;42884;50.718;4.630;2023-05-02T07:26:54;13.70;99.90
23873;DHT22;42884;50.718;4.630;2023-05-02T07:29:19;13.60;99.90
23873;DHT22;42884;50.718;4.630;2023-05-02T07:31:45;13.80;99.90
23873;DHT22;42884;50.718;4.630;2023-05-02T07:34:11;14.00;99.90
23873;DHT22;42884;50.718;4.630;2023-05-02T07:36:36;14.20;99.90
23873;DHT22;42884;50.718;4.630;2023-05-02T07:39:02;14.40;99.90
23873;DHT22;42884;50.718;4.630;2023-05-02T07:41:28;14.50;99.90
23873;DHT22;42884;50.718;4.630;2023-05-02T07:43:53;14.60;99.90
23873;DHT22;42884;50.718;4.630;2023-05-02T07:46:20;14.60;99.90
23873;DHT22;42884;50.718;4.630;2023-05-02T07:48:45;14.80;99.90
23873;DHT22;42884;50.718;4.630;2023-05-02T07:51:11;14.90;99.90
23873;DHT22;42884;50.718;4.630;2023-05-02T07:53:37;14.90;99.90
23873;DHT22;42884;50.718;4.630;2023-05-02T07:56:03;15.10;99.90
23873;DHT22;42884;50.718;4.630;2023-05-02T07:58:29;14.90;99.90
23873;DHT22;42884;50.718;4.630;2023-05-02T08:00:55;15.00;99.90
23873;DHT22;42884;50.718;4.630;2023-05-02T08:03:21;15.00;99.90
23873;DHT22;42884;50.718;4.630;2023-05-02T08:05:47;15.20;99.90
23873;DHT22;42884;50.718;4.630;2023-05-02T08:08:12;15.40;99.90
23873;DHT22;42884;50.718;4.630;2023-05-02T08:10:38;15.40;99.90
23873;DHT22;42884;50.718;4.630;2023-05-02T08:13:03;15.50;99.90
23873;DHT22;42884;50.718;4.630;2023-05-02T08:15:29;15.40;99.90
23873;DHT22;42884;50.718;4.630;2023-05-02T08:17:55;15.30;99.90
23873;DHT22;42884;50.718;4.630;2023-05-02T08:20:20;15.40;99.90
23873;DHT22;42884;50.718;4.630;2023-05-02T08:22:47;15.80;99.90
23873;DHT22;42884;50.718;4.630;2023-05-02T08:25:13;16.00;99.90
23873;DHT22;42884;50.718;4.630;2023-05-02T08:27:38;16.10;99.90
23873;DHT22;42884;50.718;4.630;2023-05-02T08:30:04;16.50;99.90
23873;DHT22;42884;50.718;4.630;2023-05-02T08:32:31;16.60;99.90
23873;DHT22;42884;50.718;4.630;2023-05-02T08:34:56;16.90;99.90
23873;DHT22;42884;50.718;4.630;2023-05-02T08:37:22;17.20;99.90
23873;DHT22;42884;50.718;4.630;2023-05-02T08:39:47;17.30;99.90
23873;DHT22;42884;50.718;4.630;2023-05-02T08:42:13;17.50;99.90
23873;DHT22;42884;50.718;4.630;2023-05-02T08:44:39;17.50;99.90
23873;DHT22;42884;50.718;4.630;2023-05-02T08:47:04;17.30;99.90
23873;DHT22;42884;50.718;4.630;2023-05-02T08:49:31;17.20;99.90
23873;DHT22;42884;50.718;4.630;2023-05-02T08:52:00;16.90;99.90
23873;DHT22;42884;50.718;4.630;2023-05-02T08:54:26;17.10;99.90
23873;DHT22;42884;50.718;4.630;2023-05-02T08:56:55;17.10;99.90
23873;DHT22;42884;50.718;4.630;2023-05-02T08:59:21;17.50;99.90
23873;DHT22;42884;50.718;4.630;2023-05-02T09:01:48;17.40;99.90
23873;DHT22;42884;50.718;4.630;2023-05-02T09:04:13;17.20;99.90
23873;DHT22;42884;50.718;4.630;2023-05-02T09:06:39;17.10;99.90
23873;DHT22;42884;50.718;4.630;2023-05-02T09:09:05;17.40;99.90
23873;DHT22;42884;50.718;4.630;2023-05-02T09:11:31;17.50;99.90
23873;DHT22;42884;50.718;4.630;2023-05-02T09:13:57;17.50;99.90
23873;DHT22;42884;50.718;4.630;2023-05-02T09:16:28;17.30;99.90
23873;DHT22;42884;50.718;4.630;2023-05-02T09:18:54;17.50;99.90
23873;DHT22;42884;50.718;4.630;2023-05-02T09:21:39;17.70;99.90
23873;DHT22;42884;50.718;4.630;2023-05-02T09:24:15;17.90;99.90
23873;DHT22;42884;50.718;4.630;2023-05-02T09:26:41;18.00;99.90
23873;DHT22;42884;50.718;4.630;2023-05-02T09:29:07;18.00;99.90
23873;DHT22;42884;50.718;4.630;2023-05-02T09:31:34;18.00;99.90
23873;DHT22;42884;50.718;4.630;2023-05-02T09:34:08;17.90;99.90
23873;DHT22;42884;50.718;4.630;2023-05-02T09:36:44;18.20;99.90
23873;DHT22;42884;50.718;4.630;2023-05-02T09:39:14;18.10;99.90
23873;DHT22;42884;50.718;4.630;2023-05-02T09:41:41;18.20;99.90
23873;DHT22;42884;50.718;4.630;2023-05-02T09:44:10;18.30;99.90
23873;DHT22;42884;50.718;4.630;2023-05-02T09:46:44;18.50;99.90
23873;DHT22;42884;50.718;4.630;2023-05-02T09:49:10;18.70;99.90
23873;DHT22;42884;50.718;4.630;2023-05-02T09:51:36;19.10;99.90
23873;DHT22;42884;50.718;4.630;2023-05-02T09:54:02;19.10;99.90
23873;DHT22;42884;50.718;4.630;2023-05-02T09:56:27;19.30;99.90
23873;DHT22;42884;50.718;4.630;2023-05-02T09:59:12;19.30;99.90
23873;DHT22;42884;50.718;4.630;2023-05-02T10:01:39;19.50;99.90
23873;DHT22;42884;50.718;4.630;2023-05-02T10:04:05;19.40;99.90
23873;DHT22;42884;50.718;4.630;2023-05-02T10:06:31;19.40;99.90
23873;DHT22;42884;50.718;4.630;2023-05-02T10:08:57;19.50;99.90
23873;DHT22;42884;50.718;4.630;2023-05-02T10:11:23;19.20;99.90
23873;DHT22;42884;50.718;4.630;2023-05-02T10:13:49;18.90;99.90
23873;DHT22;42884;50.718;4.630;2023-05-02T10:16:15;19.10;99.90
23873;DHT22;42884;50.718;4.630;2023-05-02T10:19:02;19.40;99.90
23873;DHT22;42884;50.718;4.630;2023-05-02T10:21:29;19.70;99.90
23873;DHT22;42884;50.718;4.630;2023-05-02T10:23:56;19.80;99.90
23873;DHT22;42884;50.718;4.630;2023-05-02T10:26:22;19.90;99.90
23873;DHT22;42884;50.718;4.630;2023-05-02T10:28:48;20.00;99.90
23873;DHT22;42884;50.718;4.630;2023-05-02T10:31:14;20.10;99.90
23873;DHT22;42884;50.718;4.630;2023-05-02T10:33:40;20.40;99.90
23873;DHT22;42884;50.718;4.630;2023-05-02T10:36:07;20.80;99.90
23873;DHT22;42884;50.718;4.630;2023-05-02T10:38:33;21.00;99.90
23873;DHT22;42884;50.718;4.630;2023-05-02T10:41:01;20.90;99.90
23873;DHT22;42884;50.718;4.630;2023-05-02T10:43:31;20.60;99.90
23873;DHT22;42884;50.718;4.630;2023-05-02T10:45:58;20.60;99.90
23873;DHT22;42884;50.718;4.630;2023-05-02T10:48:24;20.70;99.90
23873;DHT22;42884;50.718;4.630;2023-05-02T10:53:26;22.10;99.90
23873;DHT22;42884;50.718;4.630;2023-05-02T10:58:36;22.30;99.90
23873;DHT22;42884;50.718;4.630;2023-05-02T11:06:18;22.20;99.90
23873;DHT22;42884;50.718;4.630;2023-05-02T11:08:44;21.80;99.90
23873;DHT22;42884;50.718;4.630;2023-05-02T11:11:53;21.60;99.70
23873;DHT22;42884;50.718;4.630;2023-05-02T11:13:58;21.40;99.90
23873;DHT22;42884;50.718;4.630;2023-05-02T11:16:23;21.50;99.90
23873;DHT22;42884;50.718;4.630;2023-05-02T11:18:59;21.50;99.90
23873;DHT22;42884;50.718;4.630;2023-05-02T11:21:28;21.30;99.90
23873;DHT22;42884;50.718;4.630;2023-05-02T11:26:38;21.10;99.90
23873;DHT22;42884;50.718;4.630;2023-05-02T11:29:04;21.20;99.90
23873;DHT22;42884;50.718;4.630;2023-05-02T11:33:56;21.30;99.90
23873;DHT22;42884;50.718;4.630;2023-05-02T11:36:28;21.30;99.90
23873;DHT22;42884;50.718;4.630;2023-05-02T11:38:54;21.40;99.90
23873;DHT22;42884;50.718;4.630;2023-05-02T11:41:20;21.30;99.90
23873;DHT22;42884;50.718;4.630;2023-05-02T11:43:45;21.20;99.90
23873;DHT22;42884;50.718;4.630;2023-05-02T11:46:11;21.40;99.90
23873;DHT22;42884;50.718;4.630;2023-05-02T11:48:37;21.90;99.90
23873;DHT22;42884;50.718;4.630;2023-05-02T11:51:02;21.80;99.90
23873;DHT22;42884;50.718;4.630;2023-05-02T11:53:29;21.30;99.40
23873;DHT22;42884;50.718;4.630;2023-05-02T11:55:56;21.50;99.90
23873;DHT22;42884;50.718;4.630;2023-05-02T11:58:23;21.30;99.90
23873;DHT22;42884;50.718;4.630;2023-05-02T12:00:50;21.20;99.90
23873;DHT22;42884;50.718;4.630;2023-05-02T12:05:48;21.30;99.90
23873;DHT22;42884;50.718;4.630;2023-05-02T12:08:20;21.50;99.90
23873;DHT22;42884;50.718;4.630;2023-05-02T12:10:46;21.40;99.90
23873;DHT22;42884;50.718;4.630;2023-05-02T12:13:13;21.30;99.90
23873;DHT22;42884;50.718;4.630;2023-05-02T12:15:39;21.30;99.90
23873;DHT22;42884;50.718;4.630;2023-05-02T12:18:05;21.20;99.90
23873;DHT22;42884;50.718;4.630;2023-05-02T12:20:31;21.20;99.90
23873;DHT22;42884;50.718;4.630;2023-05-02T12:22:56;21.30;99.90
23873;DHT22;42884;50.718;4.630;2023-05-02T12:25:22;21.60;99.90
23873;DHT22;42884;50.718;4.630;2023-05-02T12:30:40;21.80;99.90
23873;DHT22;42884;50.718;4.630;2023-05-02T12:33:06;21.20;99.90
23873;DHT22;42884;50.718;4.630;2023-05-02T12:35:32;20.80;99.90
23873;DHT22;42884;50.718;4.630;2023-05-02T12:38:07;20.90;99.90
23873;DHT22;42884;50.718;4.630;2023-05-02T12:40:33;21.40;99.90
23873;DHT22;42884;50.718;4.630;2023-05-02T12:43:05;21.80;98.90
23873;DHT22;42884;50.718;4.630;2023-05-02T12:45:35;21.50;99.90
23873;DHT22;42884;50.718;4.630;2023-05-02T12:50:41;21.90;99.90
23873;DHT22;42884;50.718;4.630;2023-05-02T12:53:07;21.60;99.10
23873;DHT22;42884;50.718;4.630;2023-05-02T12:55:33;21.30;99.90
23873;DHT22;42884;50.718;4.630;2023-05-02T12:58:02;21.40;99.90
23873;DHT22;42884;50.718;4.630;2023-05-02T13:00:31;21.30;99.90
23873;DHT22;42884;50.718;4.630;2023-05-02T13:02:57;21.50;99.90
23873;DHT22;42884;50.718;4.630;2023-05-02T13:05:23;21.60;99.90
23873;DHT22;42884;50.718;4.630;2023-05-02T13:07:49;21.80;99.90
23873;DHT22;42884;50.718;4.630;2023-05-02T13:10:15;22.00;99.70
23873;DHT22;42884;50.718;4.630;2023-05-02T13:12:42;22.10;99.90
23873;DHT22;42884;50.718;4.630;2023-05-02T13:15:08;21.70;99.90
23873;DHT22;42884;50.718;4.630;2023-05-02T13:17:34;21.60;99.90
23873;DHT22;42884;50.718;4.630;2023-05-02T13:20:00;21.40;99.90
23873;DHT22;42884;50.718;4.630;2023-05-02T13:22:26;20.90;99.70
23873;DHT22;42884;50.718;4.630;2023-05-02T13:24:52;20.30;99.90
23873;DHT22;42884;50.718;4.630;2023-05-02T13:27:18;20.10;99.90
23873;DHT22;42884;50.718;4.630;2023-05-02T13:29:44;20.20;99.70
23873;DHT22;42884;50.718;4.630;2023-05-02T13:32:10;20.30;99.90
23873;DHT22;42884;50.718;4.630;2023-05-02T13:34:35;20.40;99.90
23873;DHT22;42884;50.718;4.630;2023-05-02T13:37:01;20.40;99.90
23873;DHT22;42884;50.718;4.630;2023-05-02T13:39:26;20.40;99.90
23873;DHT22;42884;50.718;4.630;2023-05-02T13:41:52;20.50;99.90
23873;DHT22;42884;50.718;4.630;2023-05-02T13:44:18;20.40;99.60
23873;DHT22;42884;50.718;4.630;2023-05-02T13:46:43;20.50;99.90
23873;DHT22;42884;50.718;4.630;2023-05-02T13:49:09;20.50;98.40
23873;DHT22;42884;50.718;4.630;2023-05-02T13:51:34;20.70;99.90
23873;DHT22;42884;50.718;4.630;2023-05-02T13:54:00;20.80;99.90
23873;DHT22;42884;50.718;4.630;2023-05-02T13:56:26;21.10;99.90
23873;DHT22;42884;50.718;4.630;2023-05-02T13:58:52;21.50;98.20
23873;DHT22;42884;50.718;4.630;2023-05-02T14:01:18;22.00;99.70
23873;DHT22;42884;50.718;4.630;2023-05-02T14:03:43;22.30;99.90
23873;DHT22;42884;50.718;4.630;2023-05-02T14:06:09;22.60;99.90
23873;DHT22;42884;50.718;4.630;2023-05-02T14:08:35;22.80;98.50
23873;DHT22;42884;50.718;4.630;2023-05-02T14:11:00;22.60;96.00
23873;DHT22;42884;50.718;4.630;2023-05-02T14:13:26;22.60;98.30
23873;DHT22;42884;50.718;4.630;2023-05-02T14:15:52;22.80;98.70
23873;DHT22;42884;50.718;4.630;2023-05-02T14:18:18;22.90;97.10
23873;DHT22;42884;50.718;4.630;2023-05-02T14:20:43;23.10;98.40
23873;DHT22;42884;50.718;4.630;2023-05-02T14:23:09;23.10;94.80
23873;DHT22;42884;50.718;4.630;2023-05-02T14:25:35;23.10;96.30
23873;DHT22;42884;50.718;4.630;2023-05-02T14:28:01;22.70;94.60
23873;DHT22;42884;50.718;4.630;2023-05-02T14:30:27;22.80;98.80
23873;DHT22;42884;50.718;4.630;2023-05-02T14:32:53;23.00;97.50
23873;DHT22;42884;50.718;4.630;2023-05-02T14:35:18;23.10;95.20
23873;DHT22;42884;50.718;4.630;2023-05-02T14:37:44;22.90;94.80
23873;DHT22;42884;50.718;4.630;2023-05-02T14:40:11;23.20;97.60
23873;DHT22;42884;50.718;4.630;2023-05-02T14:42:38;22.90;93.90
23873;DHT22;42884;50.718;4.630;2023-05-02T14:45:04;22.60;96.70
23873;DHT22;42884;50.718;4.630;2023-05-02T14:47:30;22.60;98.20
23873;DHT22;42884;50.718;4.630;2023-05-02T14:49:56;23.10;97.60
23873;DHT22;42884;50.718;4.630;2023-05-02T14:52:21;23.50;98.40
23873;DHT22;42884;50.718;4.630;2023-05-02T14:54:47;23.70;95.90
23873;DHT22;42884;50.718;4.630;2023-05-02T14:57:12;23.50;95.10
23873;DHT22;42884;50.718;4.630;2023-05-02T14:59:38;23.10;95.50
23873;DHT22;42884;50.718;4.630;2023-05-02T15:02:04;23.30;97.20
23873;DHT22;42884;50.718;4.630;2023-05-02T15:04:30;23.70;97.10
23873;DHT22;42884;50.718;4.630;2023-05-02T15:06:56;23.80;96.20
23873;DHT22;42884;50.718;4.630;2023-05-02T15:09:22;23.80;92.30
23873;DHT22;42884;50.718;4.630;2023-05-02T15:11:51;23.40;96.40
23873;DHT22;42884;50.718;4.630;2023-05-02T15:14:17;23.70;95.30
23873;DHT22;42884;50.718;4.630;2023-05-02T15:16:42;23.70;93.50
23873;DHT22;42884;50.718;4.630;2023-05-02T15:19:08;23.50;93.20
23873;DHT22;42884;50.718;4.630;2023-05-02T15:21:34;23.60;94.00
23873;DHT22;42884;50.718;4.630;2023-05-02T15:24:00;23.40;92.60
23873;DHT22;42884;50.718;4.630;2023-05-02T15:26:26;23.10;94.30
23873;DHT22;42884;50.718;4.630;2023-05-02T15:28:51;23.20;94.30
23873;DHT22;42884;50.718;4.630;2023-05-02T15:31:17;23.40;93.70
23873;DHT22;42884;50.718;4.630;2023-05-02T15:33:43;23.20;93.60
23873;DHT22;42884;50.718;4.630;2023-05-02T15:36:08;23.00;94.40
23873;DHT22;42884;50.718;4.630;2023-05-02T15:38:34;22.80;94.50
23873;DHT22;42884;50.718;4.630;2023-05-02T15:41:04;22.70;94.60
23873;DHT22;42884;50.718;4.630;2023-05-02T15:43:30;22.60;95.50
23873;DHT22;42884;50.718;4.630;2023-05-02T15:45:56;22.40;94.70
23873;DHT22;42884;50.718;4.630;2023-05-02T15:48:23;22.50;94.80
23873;DHT22;42884;50.718;4.630;2023-05-02T15:50:48;22.30;93.70
23873;DHT22;42884;50.718;4.630;2023-05-02T15:53:14;21.90;92.40
23873;DHT22;42884;50.718;4.630;2023-05-02T15:55:41;21.40;93.80
23873;DHT22;42884;50.718;4.630;2023-05-02T15:58:08;21.20;95.50
23873;DHT22;42884;50.718;4.630;2023-05-02T16:00:33;21.20;96.10
23873;DHT22;42884;50.718;4.630;2023-05-02T16:02:59;20.90;94.60